Terminal Aerodrome Forecast
Issued by NWS Missoula, MT

Home | Current Version | Previous Version | Text Only | Print | Product List | Glossary On
Versions: 1 2 3 4 5 6 7 8 9 10 11 12 13 14 15 16 17 18
696
FTUS45 KMSO 181726
TAFMSO
TAF
KMSO 181726Z 1818/1918 17010G19KT P6SM -SHRA OVC040
     FM190000 31010KT 6SM -SNRA BKN030 OVC050
     FM190600 31005KT 5SM -SN BR OVC030
     FM191400 29004KT 6SM -SN BR OVC030=

USA.gov is the U.S. government's official web portal to all federal, state and local government web resources and services.